N461VZ PASC-PAQT

Flight info

Callsign N461VZ
Flight time 0h 56m
Altitude 3000
Route DCT
Aircraft C172/L-SDFGR/1200

Departure

Time 2026-04-28 19:02
Airport Deadhorse Airport (PASC)

Arrival

Time 2026-04-28 19:58
Airport Nuiqsut Airport (PAQT)
Time Latitude Longitude Altitude Speed Heading
2026-04-28 18:45 70.19855 -148.45075 54 ft 0 kts 161°
2026-04-28 18:50 70.19852 -148.45070 54 ft 1 kts 156°
2026-04-28 18:50 70.19838 -148.44963 55 ft 4 kts 139°
2026-04-28 18:50 70.19792 -148.44986 55 ft 14 kts 249°
2026-04-28 18:50 70.19751 -148.45377 55 ft 24 kts 255°
2026-04-28 18:51 70.19704 -148.45894 54 ft 25 kts 255°
2026-04-28 18:51 70.19673 -148.46243 53 ft 0 kts 269°
2026-04-28 18:51 70.19673 -148.46248 53 ft 0 kts 260°
2026-04-28 18:51 70.19673 -148.46251 53 ft 1 kts 260°
2026-04-28 18:52 70.19672 -148.46262 52 ft 0 kts 263°
2026-04-28 18:52 70.19660 -148.46387 51 ft 18 kts 252°
2026-04-28 18:52 70.19618 -148.46843 51 ft 27 kts 256°
2026-04-28 18:52 70.19564 -148.47438 53 ft 29 kts 257°
2026-04-28 18:53 70.19515 -148.47980 54 ft 25 kts 257°
2026-04-28 18:53 70.19471 -148.48450 51 ft 23 kts 253°
2026-04-28 18:53 70.19433 -148.48877 51 ft 19 kts 256°
2026-04-28 18:53 70.19418 -148.49214 51 ft 13 kts 274°
2026-04-28 18:54 70.19411 -148.49280 51 ft 0 kts 74°
2026-04-28 18:57 70.19402 -148.49150 51 ft 10 kts 107°
2026-04-28 18:58 70.19395 -148.49110 51 ft 0 kts 153°
2026-04-28 18:59 70.19357 -148.49094 51 ft 2 kts 165°
2026-04-28 18:59 70.19356 -148.49094 51 ft 0 kts 161°
2026-04-28 19:00 70.19326 -148.49068 51 ft 12 kts 163°
2026-04-28 19:00 70.19260 -148.48923 51 ft 9 kts 45°
2026-04-28 19:01 70.19264 -148.48904 51 ft 0 kts 72°
2026-04-28 19:01 70.19281 -148.48673 51 ft 36 kts 78°
2026-04-28 19:01 70.19362 -148.47621 151 ft 59 kts 70°
2026-04-28 19:01 70.19456 -148.46429 385 ft 59 kts 70°
2026-04-28 19:02 70.19576 -148.45285 616 ft 60 kts 71°
2026-04-28 19:02 70.19635 -148.44092 850 ft 60 kts 78°
2026-04-28 19:02 70.19642 -148.42871 1071 ft 65 kts 97°
2026-04-28 19:02 70.19192 -148.42210 1311 ft 94 kts 171°
2026-04-28 19:03 70.18554 -148.42540 1544 ft 93 kts 169°
2026-04-28 19:03 70.17938 -148.42909 1800 ft 94 kts 176°
2026-04-28 19:03 70.17470 -148.44513 1966 ft 118 kts 258°
2026-04-28 19:03 70.17323 -148.46832 2212 ft 114 kts 253°
2026-04-28 19:04 70.17114 -148.49069 2426 ft 113 kts 248°
2026-04-28 19:04 70.16906 -148.51250 2676 ft 110 kts 248°
2026-04-28 19:04 70.16673 -148.53380 2901 ft 109 kts 245°
2026-04-28 19:04 70.16532 -148.55580 3048 ft 115 kts 282°
2026-04-28 19:05 70.16808 -148.57884 3109 ft 124 kts 295°
2026-04-28 19:05 70.17040 -148.60283 3269 ft 125 kts 283°
2026-04-28 19:05 70.17191 -148.62993 3168 ft 140 kts 282°
2026-04-28 19:05 70.17337 -148.65793 3307 ft 133 kts 280°
2026-04-28 19:06 70.17475 -148.68373 3485 ft 126 kts 280°
2026-04-28 19:06 70.17564 -148.70046 3606 ft 122 kts 280°
2026-04-28 19:06 70.17731 -148.73248 3864 ft 117 kts 280°
2026-04-28 19:06 70.17860 -148.75624 4021 ft 119 kts 281°
2026-04-28 19:07 70.17995 -148.78049 4008 ft 118 kts 282°
2026-04-28 19:07 70.18127 -148.80536 4003 ft 115 kts 284°
2026-04-28 19:07 70.18250 -148.82848 3999 ft 113 kts 280°
2026-04-28 19:07 70.18369 -148.85129 3965 ft 112 kts 278°
2026-04-28 19:08 70.18359 -148.87431 3962 ft 112 kts 268°
2026-04-28 19:08 70.18367 -148.89716 3962 ft 112 kts 266°
2026-04-28 19:08 70.18352 -148.91997 3974 ft 110 kts 270°
2026-04-28 19:08 70.18343 -148.94353 3962 ft 110 kts 271°
2026-04-28 19:09 70.18330 -148.96590 3958 ft 109 kts 267°
2026-04-28 19:09 70.18311 -148.98807 3942 ft 109 kts 271°
2026-04-28 19:09 70.18295 -149.01007 3928 ft 107 kts 269°
2026-04-28 19:09 70.18280 -149.03183 3926 ft 106 kts 266°
2026-04-28 19:10 70.18264 -149.05347 3926 ft 105 kts 267°
2026-04-28 19:10 70.18244 -149.07494 3913 ft 103 kts 269°
2026-04-28 19:10 70.18222 -149.09599 3911 ft 103 kts 269°
2026-04-28 19:10 70.18188 -149.11684 3911 ft 102 kts 264°
2026-04-28 19:11 70.18130 -149.13762 3930 ft 100 kts 261°
2026-04-28 19:11 70.18077 -149.15785 3932 ft 98 kts 265°
2026-04-28 19:11 70.18027 -149.17790 3882 ft 97 kts 261°
2026-04-28 19:11 70.17982 -149.19743 3892 ft 95 kts 265°
2026-04-28 19:12 70.17938 -149.21660 3877 ft 93 kts 264°
2026-04-28 19:12 70.17900 -149.23518 3857 ft 88 kts 259°
2026-04-28 19:12 70.17736 -149.25297 3753 ft 94 kts 221°
2026-04-28 19:12 70.17184 -149.25752 3614 ft 84 kts 167°
2026-04-28 19:13 70.16635 -149.27208 3414 ft 119 kts 253°
2026-04-28 19:13 70.16811 -149.29567 3497 ft 97 kts 302°
2026-04-28 19:13 70.17172 -149.31326 3432 ft 108 kts 313°
2026-04-28 19:13 70.17615 -149.33049 3582 ft 101 kts 320°
2026-04-28 19:14 70.17935 -149.34923 3728 ft 105 kts 282°
2026-04-28 19:14 70.17923 -149.37073 3873 ft 102 kts 259°
2026-04-28 19:14 70.17770 -149.39145 3938 ft 107 kts 251°
2026-04-28 19:14 70.17596 -149.41376 3943 ft 119 kts 269°
2026-04-28 19:15 70.17612 -149.43915 3924 ft 127 kts 273°
2026-04-28 19:15 70.17670 -149.46478 3974 ft 128 kts 277°
2026-04-28 19:15 70.17728 -149.49074 4015 ft 126 kts 273°
2026-04-28 19:15 70.17761 -149.50810 3942 ft 124 kts 275°
2026-04-28 19:16 70.17850 -149.54016 3909 ft 116 kts 280°
2026-04-28 19:16 70.17948 -149.56369 3880 ft 115 kts 282°
2026-04-28 19:16 70.18020 -149.58742 3818 ft 118 kts 272°
2026-04-28 19:16 70.18034 -149.61147 3776 ft 118 kts 272°
2026-04-28 19:17 70.18055 -149.63535 3761 ft 117 kts 273°
2026-04-28 19:17 70.18076 -149.65936 3703 ft 118 kts 270°
2026-04-28 19:17 70.18101 -149.68347 3663 ft 118 kts 272°
2026-04-28 19:17 70.18125 -149.70772 3583 ft 120 kts 272°
2026-04-28 19:18 70.18151 -149.73210 3554 ft 118 kts 271°
2026-04-28 19:18 70.18178 -149.75647 3478 ft 120 kts 272°
2026-04-28 19:18 70.18206 -149.78093 3452 ft 117 kts 270°
2026-04-28 19:18 70.18233 -149.80360 3523 ft 104 kts 271°
2026-04-28 19:19 70.18224 -149.82329 3601 ft 90 kts 264°
2026-04-28 19:19 70.18095 -149.84114 3542 ft 89 kts 210°
2026-04-28 19:19 70.17624 -149.85001 3508 ft 82 kts 209°
2026-04-28 19:19 70.17411 -149.86885 3293 ft 112 kts 263°
2026-04-28 19:20 70.17355 -149.89107 3369 ft 106 kts 262°
2026-04-28 19:20 70.17255 -149.91168 3458 ft 101 kts 255°
2026-04-28 19:20 70.17154 -149.93274 3491 ft 103 kts 261°
2026-04-28 19:20 70.17091 -149.95326 3559 ft 99 kts 263°
2026-04-28 19:21 70.17030 -149.97293 3629 ft 92 kts 262°
2026-04-28 19:21 70.16938 -149.99083 3633 ft 92 kts 247°
2026-04-28 19:21 70.16764 -150.01060 3546 ft 106 kts 250°
2026-04-28 19:21 70.16669 -150.03172 3616 ft 102 kts 262°
2026-04-28 19:22 70.16615 -150.05263 3653 ft 103 kts 262°
2026-04-28 19:22 70.16580 -150.06661 3670 ft 103 kts 263°
2026-04-28 19:22 70.16518 -150.09485 3691 ft 105 kts 265°
2026-04-28 19:22 70.16478 -150.11639 3706 ft 105 kts 265°
2026-04-28 19:23 70.16435 -150.13766 3732 ft 105 kts 265°
2026-04-28 19:23 70.16451 -150.15912 3766 ft 104 kts 272°
2026-04-28 19:23 70.16485 -150.18047 3783 ft 103 kts 273°
2026-04-28 19:23 70.16519 -150.20114 3815 ft 99 kts 272°
2026-04-28 19:24 70.16552 -150.22099 3852 ft 94 kts 273°
2026-04-28 19:24 70.16582 -150.23970 3873 ft 89 kts 272°
2026-04-28 19:24 70.16489 -150.25854 3705 ft 110 kts 258°
2026-04-28 19:24 70.16447 -150.28107 3749 ft 103 kts 274°
2026-04-28 19:25 70.16518 -150.30209 3749 ft 104 kts 279°
2026-04-28 19:25 70.16612 -150.32300 3756 ft 103 kts 281°
2026-04-28 19:25 70.16686 -150.34407 3756 ft 104 kts 270°
2026-04-28 19:25 70.16670 -150.36494 3782 ft 99 kts 267°
2026-04-28 19:26 70.16619 -150.38515 3772 ft 98 kts 263°
2026-04-28 19:26 70.16550 -150.40495 3774 ft 97 kts 261°
2026-04-28 19:26 70.16456 -150.42534 3728 ft 100 kts 257°
2026-04-28 19:26 70.16379 -150.44575 3734 ft 97 kts 262°
2026-04-28 19:27 70.16298 -150.46529 3711 ft 97 kts 259°
2026-04-28 19:27 70.16255 -150.48621 3635 ft 105 kts 270°
2026-04-28 19:27 70.16250 -150.50674 3678 ft 98 kts 265°
2026-04-28 19:27 70.16170 -150.52624 3678 ft 94 kts 258°
2026-04-28 19:28 70.16039 -150.54549 3644 ft 95 kts 250°
2026-04-28 19:28 70.15891 -150.56496 3573 ft 101 kts 261°
2026-04-28 19:28 70.15829 -150.58553 3561 ft 101 kts 264°
2026-04-28 19:28 70.15784 -150.60603 3545 ft 101 kts 266°
2026-04-28 19:29 70.15764 -150.62660 3546 ft 97 kts 270°
2026-04-28 19:29 70.15773 -150.63974 3544 ft 95 kts 273°
2026-04-28 19:29 70.15810 -150.66530 3502 ft 95 kts 268°
2026-04-28 19:29 70.15807 -150.68507 3466 ft 95 kts 267°
2026-04-28 19:30 70.15801 -150.70445 3441 ft 94 kts 265°
2026-04-28 19:30 70.15789 -150.72366 3400 ft 95 kts 270°
2026-04-28 19:30 70.15810 -150.74329 3375 ft 95 kts 271°
2026-04-28 19:30 70.15847 -150.76265 3344 ft 97 kts 275°
2026-04-28 19:31 70.15889 -150.78287 3292 ft 103 kts 272°
2026-04-28 19:31 70.15900 -150.80467 3249 ft 109 kts 270°
2026-04-28 19:31 70.15877 -150.82680 3254 ft 110 kts 265°
2026-04-28 19:31 70.15820 -150.84979 3218 ft 115 kts 261°
2026-04-28 19:32 70.15670 -150.87303 3234 ft 114 kts 252°
2026-04-28 19:32 70.15486 -150.89638 3217 ft 117 kts 253°
2026-04-28 19:32 70.15292 -150.91957 3203 ft 120 kts 255°
2026-04-28 19:32 70.15205 -150.94405 3199 ft 119 kts 270°
2026-04-28 19:33 70.15220 -150.96848 3215 ft 118 kts 270°
2026-04-28 19:33 70.15223 -150.99283 3230 ft 117 kts 271°
2026-04-28 19:33 70.15211 -151.01654 3238 ft 118 kts 270°
2026-04-28 19:33 70.15218 -151.04099 3230 ft 118 kts 274°
2026-04-28 19:34 70.15318 -151.06444 3236 ft 115 kts 281°
2026-04-28 19:34 70.15388 -151.08745 3280 ft 112 kts 271°
2026-04-28 19:34 70.15361 -151.11078 3246 ft 115 kts 267°
2026-04-28 19:34 70.15308 -151.13434 3250 ft 116 kts 262°
2026-04-28 19:35 70.15212 -151.15778 3248 ft 115 kts 261°
2026-04-28 19:35 70.15113 -151.18103 3249 ft 114 kts 260°
2026-04-28 19:35 70.15012 -151.20416 3234 ft 114 kts 261°
2026-04-28 19:35 70.14917 -151.22757 3203 ft 114 kts 261°
2026-04-28 19:36 70.14805 -151.25156 3122 ft 123 kts 263°
2026-04-28 19:36 70.14710 -151.27620 3081 ft 121 kts 267°
2026-04-28 19:36 70.14674 -151.30063 3040 ft 119 kts 266°
2026-04-28 19:36 70.14644 -151.32460 3035 ft 115 kts 271°
2026-04-28 19:37 70.14616 -151.34825 2967 ft 118 kts 266°
2026-04-28 19:37 70.14566 -151.36410 2950 ft 116 kts 264°
2026-04-28 19:37 70.14417 -151.39600 2810 ft 125 kts 259°
2026-04-28 19:37 70.14260 -151.42012 2823 ft 116 kts 256°
2026-04-28 19:38 70.14175 -151.44318 2806 ft 111 kts 265°
2026-04-28 19:38 70.14150 -151.46600 2731 ft 114 kts 271°
2026-04-28 19:38 70.14186 -151.48892 2689 ft 112 kts 279°
2026-04-28 19:38 70.14317 -151.51131 2612 ft 113 kts 285°
2026-04-28 19:39 70.14418 -151.53458 2489 ft 117 kts 288°
2026-04-28 19:39 70.14429 -151.55763 2442 ft 114 kts 252°
2026-04-28 19:39 70.14111 -151.57794 2357 ft 110 kts 219°
2026-04-28 19:39 70.13521 -151.59103 2247 ft 102 kts 190°
2026-04-28 19:40 70.12892 -151.59839 2162 ft 96 kts 180°
2026-04-28 19:40 70.12212 -151.60385 2017 ft 99 kts 176°
2026-04-28 19:40 70.11581 -151.61040 1960 ft 99 kts 200°
2026-04-28 19:40 70.11124 -151.62491 1932 ft 93 kts 219°
2026-04-28 19:41 70.10899 -151.64319 1675 ft 105 kts 298°
2026-04-28 19:41 70.11335 -151.65099 1555 ft 60 kts 15°
2026-04-28 19:41 70.11762 -151.65442 1405 ft 66 kts 359°
2026-04-28 19:41 70.12132 -151.65243 1196 ft 49 kts 58°
2026-04-28 19:42 70.12300 -151.64366 952 ft 57 kts 55°
2026-04-28 19:42 70.12586 -151.63464 744 ft 57 kts 50°
2026-04-28 19:42 70.12747 -151.62399 511 ft 64 kts 67°
2026-04-28 19:42 70.12852 -151.61537 347 ft 69 kts 64°
2026-04-28 19:43 70.13113 -151.59717 156 ft 62 kts 60°
2026-04-28 19:43 70.13343 -151.58690 126 ft 35 kts 52°
2026-04-28 19:43 70.13416 -151.58411 126 ft 0 kts 50°
2026-04-28 19:49 70.13417 -151.58409 126 ft 0 kts 50°
2026-04-28 19:50 70.13416 -151.58411 126 ft 0 kts 50°
2026-04-28 19:50 70.13440 -151.58316 126 ft 22 kts 56°
2026-04-28 19:50 70.13641 -151.57729 168 ft 54 kts 49°
2026-04-28 19:51 70.13811 -151.56657 365 ft 61 kts 69°
2026-04-28 19:51 70.13943 -151.55672 731 ft 46 kts 56°
2026-04-28 19:51 70.14143 -151.54935 932 ft 52 kts 46°
2026-04-28 19:51 70.14187 -151.53868 1099 ft 58 kts 82°
2026-04-28 19:52 70.14271 -151.52768 1309 ft 58 kts 63°
2026-04-28 19:52 70.14513 -151.51790 1503 ft 59 kts 62°
2026-04-28 19:52 70.14673 -151.50707 1702 ft 57 kts 68°
2026-04-28 19:52 70.14867 -151.49686 1864 ft 63 kts 60°
2026-04-28 19:53 70.15044 -151.48430 1974 ft 62 kts 73°
2026-04-28 19:53 70.15205 -151.47166 1848 ft 72 kts 70°
2026-04-28 19:53 70.15369 -151.45772 1790 ft 72 kts 71°
2026-04-28 19:53 70.15508 -151.44286 1655 ft 77 kts 75°
2026-04-28 19:54 70.15614 -151.42738 1542 ft 76 kts 73°
2026-04-28 19:54 70.15730 -151.41287 1514 ft 70 kts 73°
2026-04-28 19:54 70.15865 -151.39951 1527 ft 68 kts 70°
2026-04-28 19:54 70.16017 -151.38588 1646 ft 71 kts 70°
2026-04-28 19:55 70.16241 -151.37302 1696 ft 71 kts 60°
2026-04-28 19:55 70.16470 -151.36057 1686 ft 68 kts 68°
2026-04-28 19:55 70.16637 -151.34770 1677 ft 67 kts 72°
2026-04-28 19:55 70.16791 -151.33495 1680 ft 66 kts 71°
2026-04-28 19:56 70.16942 -151.32217 1683 ft 66 kts 71°
2026-04-28 19:56 70.17095 -151.30948 1683 ft 66 kts 71°
2026-04-28 19:56 70.17248 -151.29677 1676 ft 65 kts 71°
2026-04-28 19:56 70.17397 -151.28427 1670 ft 64 kts 71°
2026-04-28 19:57 70.17534 -151.27316 1731 ft 49 kts 69°
2026-04-28 19:57 70.17658 -151.26367 1750 ft 50 kts 70°
2026-04-28 19:57 70.17780 -151.25383 1737 ft 51 kts 70°
2026-04-28 19:57 70.17913 -151.24339 1640 ft 58 kts 72°
2026-04-28 19:58 70.18050 -151.23204 1585 ft 59 kts 70°
2026-04-28 19:58 70.18188 -151.22090 1518 ft 54 kts 70°
2026-04-28 19:58 70.18313 -151.21074 1524 ft 50 kts 69°
2026-04-28 19:58 70.18435 -151.20131 1519 ft 48 kts 69°
2026-04-28 19:59 70.18552 -151.19208 1519 ft 47 kts 68°
2026-04-28 19:59 70.18671 -151.18300 1522 ft 47 kts 68°
2026-04-28 19:59 70.18791 -151.17395 1525 ft 47 kts 68°
2026-04-28 19:59 70.18911 -151.16493 1526 ft 47 kts 68°
2026-04-28 20:00 70.19041 -151.15495 1445 ft 57 kts 69°
2026-04-28 20:00 70.19171 -151.14409 1283 ft 56 kts 70°
2026-04-28 20:00 70.19343 -151.13391 1123 ft 56 kts 60°
2026-04-28 20:00 70.19507 -151.12334 948 ft 57 kts 63°
2026-04-28 20:01 70.19655 -151.11287 788 ft 56 kts 66°
2026-04-28 20:01 70.19790 -151.10199 642 ft 55 kts 67°
2026-04-28 20:01 70.19927 -151.09155 551 ft 55 kts 60°
2026-04-28 20:01 70.20050 -151.08061 486 ft 56 kts 67°
2026-04-28 20:02 70.20180 -151.06976 401 ft 55 kts 62°
2026-04-28 20:02 70.20325 -151.05925 302 ft 53 kts 64°
2026-04-28 20:02 70.20444 -151.04912 220 ft 51 kts 63°
2026-04-28 20:02 70.20570 -151.03919 162 ft 51 kts 61°
2026-04-28 20:03 70.20689 -151.02945 104 ft 51 kts 61°
2026-04-28 20:03 70.20818 -151.01964 71 ft 49 kts 59°
2026-04-28 20:03 70.20933 -151.01048 63 ft 45 kts 60°
2026-04-28 20:03 70.21021 -151.00400 63 ft 24 kts 68°
2026-04-28 20:04 70.21072 -150.99962 57 ft 21 kts 67°
2026-04-28 20:04 70.21118 -150.99657 55 ft 13 kts 44°
2026-04-28 20:04 70.21201 -150.99600 54 ft 12 kts 345°
2026-04-28 20:04 70.21281 -150.99719 56 ft 12 kts 338°
2026-04-28 20:05 70.21310 -150.99745 56 ft 0 kts 339°